Anne Sibum — C4YC2 — position and weather

sailwx.info

Track history (hours):
 
Tides and Currents Weather Stations Pressure Air Temp Water Temp Dewpoint Dewpoint Depression Visibility Wind Speed Wind Dir Waves Ship Positions

Anne Sibum

Last reported at 2017-Dec-11 02:00 UTC. Time now 2017-Dec-11 02:21 UTC.
Position N 51°57' E 004°04'.

Length 151 m; draft 6.2 m.

Type: Ship (hazmat cat A). MMSI: 209322000.

Date/timePositionNaut miles runAvg speedWind from/ knotsBaromVisibWave heightAir tempDewpointWater temp
2017-Dec-11 02:00N 51°57' E 004°04'0 0.0
2017-Dec-11 01:30N 51°57' E 004°04'0 0.0
2017-Dec-11 00:57N 51°57' E 004°04'0 0.0
2017-Dec-11 00:30N 51°57' E 004°04'0 0.0
2017-Dec-11 00:00N 51°57' E 004°04'0 0.0
2017-Dec-10 23:30N 51°57' E 004°04'0 0.0
2017-Dec-10 23:01N 51°57' E 004°04'0 0.9
2017-Dec-10 22:31N 51°57' E 004°05'1 2.1
2017-Dec-10 22:00N 51°58' E 004°03'0 0.0
2017-Dec-10 21:30N 51°58' E 004°03'0 0.0
2017-Dec-10 21:00N 51°58' E 004°03'0 0.0
2017-Dec-10 20:30N 51°58' E 004°03'0 0.0
2017-Dec-10 20:00N 51°58' E 004°03'0 0.0
2017-Dec-10 19:30N 51°58' E 004°03'0 0.0
2017-Dec-10 19:00N 51°58' E 004°03'0 0.0
2017-Dec-10 18:30N 51°58' E 004°03'0 0.0
2017-Dec-10 17:57N 51°58' E 004°03'0 0.0
2017-Dec-10 17:30N 51°58' E 004°03'0 0.0
2017-Dec-10 17:00N 51°58' E 004°03'0 0.0
2017-Dec-10 16:30N 51°58' E 004°03'0 0.0
2017-Dec-10 15:57N 51°58' E 004°03'0 0.0
2017-Dec-10 15:30N 51°58' E 004°03'0 0.0
2017-Dec-10 15:00N 51°58' E 004°03'0 0.0
2017-Dec-10 14:30N 51°58' E 004°03'0 0.0
2017-Dec-10 14:00N 51°58' E 004°03'0 0.0
2017-Dec-10 13:27N 51°58' E 004°03'0 0.0
2017-Dec-10 13:00N 51°58' E 004°03'0 0.0
2017-Dec-10 12:30N 51°58' E 004°03'0 0.0
2017-Dec-10 12:00N 51°58' E 004°03'0 0.0
2017-Dec-10 11:30N 51°58' E 004°03'0 0.0
2017-Dec-10 11:00N 51°58' E 004°03'0 0.0
2017-Dec-10 10:30N 51°58' E 004°03'0 0.0
2017-Dec-10 10:00N 51°58' E 004°03'0 0.0
2017-Dec-10 09:30N 51°58' E 004°03'0 0.0
2017-Dec-10 09:00N 51°58' E 004°03'0 0.0
2017-Dec-10 08:30N 51°58' E 004°03'0 0.0
2017-Dec-10 08:00N 51°58' E 004°03'0 0.0
2017-Dec-10 07:30N 51°58' E 004°03'0 0.0
2017-Dec-10 07:00N 51°58' E 004°03'0 0.0
2017-Dec-10 06:30N 51°58' E 004°03'0 0.0
2017-Dec-10 05:57N 51°58' E 004°03'0 0.0
2017-Dec-10 05:30N 51°58' E 004°03'0 0.1
2017-Dec-10 05:00N 51°58' E 004°03'1 2.7
2017-Dec-10 04:31N 51°58' E 004°05'5 9.7
2017-Dec-10 04:01N 51°56' E 004°12'612.2
2017-Dec-10 03:30N 51°54' E 004°22'3 5.3
2017-Dec-10 03:01N 51°53' E 004°25'0 0.0
2017-Dec-10 02:29N 51°53' E 004°25'0 0.0
2017-Dec-10 01:59N 51°53' E 004°25'0 0.0
2017-Dec-10 01:29N 51°53' E 004°25'0 0.0
2017-Dec-10 00:56N 51°53' E 004°25'0 0.0
2017-Dec-10 00:29N 51°53' E 004°25'0 0.0
2017-Dec-10 00:00N 51°53' E 004°25'0 0.0
2017-Dec-09 23:14N 51°53' E 004°25'0 0.0
2017-Dec-09 22:59N 51°53' E 004°25'0 0.0
2017-Dec-09 22:29N 51°53' E 004°25'0 0.0
2017-Dec-09 21:59N 51°53' E 004°25'0 0.0
2017-Dec-09 21:29N 51°53' E 004°25'0 0.0
2017-Dec-09 20:59N 51°53' E 004°25'0 0.0
2017-Dec-09 20:29N 51°53' E 004°25'0 0.0
2017-Dec-09 19:59N 51°53' E 004°25'0 0.0
2017-Dec-09 19:29N 51°53' E 004°25'0 0.0
2017-Dec-09 18:59N 51°53' E 004°25'0 0.0
2017-Dec-09 18:29N 51°53' E 004°25'0 0.0
2017-Dec-09 17:59N 51°53' E 004°25'0 0.0
2017-Dec-09 17:29N 51°53' E 004°25'0 0.0
2017-Dec-09 16:59N 51°53' E 004°25'0 0.0
2017-Dec-09 16:27N 51°53' E 004°25'0 0.0
2017-Dec-09 16:00N 51°53' E 004°25'0 0.0
2017-Dec-09 15:30N 51°53' E 004°25'0 0.0
2017-Dec-09 15:00N 51°53' E 004°25'0 0.0
2017-Dec-09 14:30N 51°53' E 004°25'0 0.0
2017-Dec-09 14:00N 51°53' E 004°25'1 1.1
2017-Dec-09 13:30N 51°53' E 004°25'2 4.7
2017-Dec-09 13:00N 51°54' E 004°21'4 8.3
2017-Dec-09 12:30N 51°55' E 004°15'510.4
2017-Dec-09 12:00N 51°58' E 004°08'4 8.7
2017-Dec-09 11:30N 51°60' E 004°01'613.0
2017-Dec-09 11:00N 51°59' E 003°51'713.9
2017-Dec-09 10:30N 51°57' E 003°39'5212.9
2017-Dec-09 06:27N 51°36' E 002°23'614.0
2017-Dec-09 06:00N 51°31' E 002°16'713.8
2017-Dec-09 05:30N 51°26' E 002°10'611.8
2017-Dec-09 05:01N 51°20' E 002°08'612.4
2017-Dec-09 04:30N 51°14' E 002°04'613.1
2017-Dec-09 04:01N 51°10' E 001°56'713.3
2017-Dec-09 03:30N 51°07' E 001°46'713.9
2017-Dec-09 03:00N 51°02' E 001°39'713.8
2017-Dec-09 02:30N 50°57' E 001°31'14412.2
2017-Dec-08 14:43N 50°12' W 002°04'2015.8
2017-Dec-08 13:26N 50°10' W 002°35'716.4
2017-Dec-08 13:00N 50°09' W 002°46'816.5
2017-Dec-08 12:30N 50°07' W 002°59'816.5
2017-Dec-08 12:00N 50°06' W 003°11'816.6
2017-Dec-08 11:30N 50°05' W 003°24'816.8
2017-Dec-08 11:00N 50°04' W 003°37'816.8
2017-Dec-08 10:30N 50°03' W 003°50'816.7
2017-Dec-08 10:00N 50°01' W 004°03'916.7
2017-Dec-08 09:29N 49°60' W 004°17'816.6
2017-Dec-08 08:59N 49°59' W 004°29'816.8
2017-Dec-08 08:31N 49°58' W 004°41'916.7
2017-Dec-08 07:59N 49°57' W 004°55'817.0
2017-Dec-08 07:31N 49°55' W 005°07'917.1
2017-Dec-08 07:00N 49°55' W 005°21'816.1
2017-Dec-08 06:30N 49°55' W 005°33'11414.0
2017-Dec-07 22:19N 51°20' W 007°35'515.6
2017-Dec-07 22:00N 51°23' W 007°40'815.9
2017-Dec-07 21:30N 51°29' W 007°49'816.2
2017-Dec-07 21:00N 51°35' W 007°58'714.9
2017-Dec-07 20:30N 51°40' W 008°07'714.7
2017-Dec-07 20:01N 51°45' W 008°15'510.7
2017-Dec-07 19:30N 51°50' W 008°16'3 6.6
2017-Dec-07 19:00N 51°53' W 008°20'3 6.6
2017-Dec-07 18:29N 51°54' W 008°25'0 0.0
2017-Dec-07 17:59N 51°54' W 008°25'0 0.0
2017-Dec-07 17:29N 51°54' W 008°25'0 0.0
2017-Dec-07 16:59N 51°54' W 008°25'0 0.0
2017-Dec-07 16:30N 51°54' W 008°25'0 0.0
2017-Dec-07 16:00N 51°54' W 008°25'0 0.0
2017-Dec-07 15:30N 51°54' W 008°25'0 0.0
2017-Dec-07 15:00N 51°54' W 008°25'0 0.0
2017-Dec-07 14:30N 51°54' W 008°25'0 0.0
2017-Dec-07 14:00N 51°54' W 008°25'0 0.0
2017-Dec-07 13:30N 51°54' W 008°25'0 0.0
2017-Dec-07 13:00N 51°54' W 008°25'0 0.0
2017-Dec-07 12:30N 51°54' W 008°25'0 0.0
2017-Dec-07 12:00N 51°54' W 008°25'0 0.0
2017-Dec-07 11:30N 51°54' W 008°25'0 0.0
2017-Dec-07 10:58N 51°54' W 008°25'0 0.0
2017-Dec-07 10:28N 51°54' W 008°25'0 0.0
2017-Dec-07 10:00N 51°54' W 008°25'0 0.0
2017-Dec-07 09:30N 51°54' W 008°25'0 0.0
2017-Dec-07 09:00N 51°54' W 008°25'0 0.0
2017-Dec-07 08:27N 51°54' W 008°25'0 0.0
2017-Dec-07 08:00N 51°54' W 008°25'0 0.0
2017-Dec-07 07:30N 51°54' W 008°25'0 0.0
2017-Dec-07 07:00N 51°54' W 008°25'0 0.0
2017-Dec-07 06:30N 51°54' W 008°25'0 0.1
2017-Dec-07 06:00N 51°54' W 008°25'0 0.0
2017-Dec-07 05:29N 51°54' W 008°25'0 0.0
2017-Dec-07 04:59N 51°54' W 008°25'0 0.0
2017-Dec-07 04:28N 51°54' W 008°25'0 0.0
2017-Dec-07 03:58N 51°54' W 008°25'0 0.0
2017-Dec-07 03:28N 51°54' W 008°25'0 0.0
2017-Dec-07 02:58N 51°54' W 008°25'0 0.0
2017-Dec-07 02:28N 51°54' W 008°25'0 0.0
2017-Dec-07 01:55N 51°54' W 008°25'0 0.0
2017-Dec-07 01:28N 51°54' W 008°25'0 0.0
2017-Dec-07 00:55N 51°54' W 008°25'0 0.0
2017-Dec-07 00:28N 51°54' W 008°25'0 0.0
2017-Dec-06 23:58N 51°54' W 008°25'0 0.0
2017-Dec-06 23:28N 51°54' W 008°25'0 0.0
2017-Dec-06 22:58N 51°54' W 008°25'0 0.0
2017-Dec-06 22:28N 51°54' W 008°25'0 0.0
2017-Dec-06 21:58N 51°54' W 008°25'0 0.0
2017-Dec-06 21:28N 51°54' W 008°25'0 0.0
2017-Dec-06 20:58N 51°54' W 008°25'  
2017-Dec-04 10:30N 51°53' E 004°25'0 0.0
2017-Dec-04 10:00N 51°53' E 004°25'0 0.0
2017-Dec-04 09:30N 51°53' E 004°25'0 0.0
2017-Dec-04 09:00N 51°53' E 004°25'0 0.0
2017-Dec-04 08:30N 51°53' E 004°25'0 0.0
2017-Dec-04 08:00N 51°53' E 004°25'0 0.0
2017-Dec-04 07:30N 51°53' E 004°25'0 0.0
2017-Dec-04 07:00N 51°53' E 004°25'0 0.0
2017-Dec-04 06:30N 51°53' E 004°25'0 0.0
2017-Dec-04 06:00N 51°53' E 004°25'0 0.0
2017-Dec-04 05:00N 51°53' E 004°25'0 0.0
2017-Dec-04 04:30N 51°53' E 004°25'0 0.0
2017-Dec-04 04:00N 51°53' E 004°25'0 0.0
2017-Dec-04 03:30N 51°53' E 004°25'0 0.0
2017-Dec-04 03:00N 51°53' E 004°25'0 0.0
2017-Dec-04 02:30N 51°53' E 004°25'0 0.0
2017-Dec-04 01:57N 51°53' E 004°25'0 0.0
2017-Dec-04 01:30N 51°53' E 004°25'0 0.0
2017-Dec-04 01:00N 51°53' E 004°25'0 0.0
2017-Dec-04 00:30N 51°53' E 004°25'0 0.0
2017-Dec-04 00:00N 51°53' E 004°25'0 0.0
2017-Dec-03 23:30N 51°53' E 004°25'0 0.0
2017-Dec-03 23:00N 51°53' E 004°25'0 0.0
2017-Dec-03 22:30N 51°53' E 004°25'0 0.0
2017-Dec-03 22:00N 51°53' E 004°25'0 0.0
2017-Dec-03 21:30N 51°53' E 004°25'0 0.0
2017-Dec-03 21:00N 51°53' E 004°25'0 0.0
2017-Dec-03 20:27N 51°53' E 004°25'0 0.0
2017-Dec-03 20:00N 51°53' E 004°25'0 0.0
2017-Dec-03 19:30N 51°53' E 004°25'0 0.0
2017-Dec-03 19:00N 51°53' E 004°25'0 0.0
2017-Dec-03 18:30N 51°53' E 004°25'0 0.0
2017-Dec-03 18:00N 51°53' E 004°25'0 0.0
2017-Dec-03 17:30N 51°53' E 004°25'0 0.0
2017-Dec-03 17:00N 51°53' E 004°25'0 0.0
2017-Dec-03 16:30N 51°53' E 004°25'0 0.0
2017-Dec-03 16:00N 51°53' E 004°25'0 0.0
2017-Dec-03 15:30N 51°53' E 004°25'0 0.0
2017-Dec-03 15:00N 51°53' E 004°25'0 0.0
2017-Dec-03 14:30N 51°53' E 004°25'0 0.0
2017-Dec-03 14:00N 51°53' E 004°25'0 0.0
2017-Dec-03 13:30N 51°53' E 004°25'0 0.0
2017-Dec-03 13:00N 51°53' E 004°25'0 0.0
2017-Dec-03 12:30N 51°53' E 004°25'0 0.0
2017-Dec-03 12:00N 51°53' E 004°25'0 0.0
2017-Dec-03 11:30N 51°53' E 004°25'0 0.0
2017-Dec-03 10:59N 51°53' E 004°25'0 0.0
2017-Dec-03 10:29N 51°53' E 004°25'0 0.0
2017-Dec-03 09:59N 51°53' E 004°25'0 0.0
2017-Dec-03 09:29N 51°53' E 004°25'0 0.0
2017-Dec-03 08:59N 51°53' E 004°25'0 0.2
2017-Dec-03 08:30N 51°53' E 004°25'3 5.5
2017-Dec-03 08:00N 51°54' E 004°20'5 9.4
2017-Dec-03 07:30N 51°56' E 004°13'510.4
2017-Dec-03 07:00N 51°59' E 004°07'2 4.4
2017-Dec-03 06:30N 51°57' E 004°04'1 1.4
2017-Dec-03 05:55N 51°57' E 004°03'0 0.0
2017-Dec-03 05:25N 51°57' E 004°03'0 0.0
2017-Dec-03 04:58N 51°57' E 004°03'0 0.0
2017-Dec-03 04:28N 51°57' E 004°03'0 0.0
2017-Dec-03 03:55N 51°57' E 004°03'0 0.0
2017-Dec-03 03:28N 51°57' E 004°03'0 0.0
2017-Dec-03 02:58N 51°57' E 004°03'0 0.0
2017-Dec-03 02:28N 51°57' E 004°03'0 0.0
2017-Dec-03 01:58N 51°57' E 004°03'0 0.0
2017-Dec-03 01:28N 51°57' E 004°03'0 0.0
2017-Dec-03 00:55N 51°57' E 004°03'0 0.0
2017-Dec-03 00:28N 51°57' E 004°03'0 0.0
2017-Dec-02 23:58N 51°57' E 004°03'0 0.0
2017-Dec-02 23:28N 51°57' E 004°03'0 0.0
2017-Dec-02 22:58N 51°57' E 004°03'0 0.0
2017-Dec-02 22:28N 51°57' E 004°03'0 0.0
2017-Dec-02 21:58N 51°57' E 004°03'0 0.0
2017-Dec-02 21:25N 51°57' E 004°03'0 0.0
2017-Dec-02 20:58N 51°57' E 004°03'0 0.0
2017-Dec-02 20:30N 51°57' E 004°03'0 0.1
2017-Dec-02 20:01N 51°57' E 004°03'0 0.3
2017-Dec-02 19:31N 51°57' E 004°03'1 1.0
2017-Dec-02 19:00N 51°57' E 004°04'2 4.0
2017-Dec-02 18:30N 51°58' E 004°02'2 3.0
2017-Dec-02 18:00N 51°57' E 004°00'0 0.0
2017-Dec-02 17:21N 51°57' E 004°00'0 0.0
2017-Dec-02 17:00N 51°57' E 004°00'0 0.0
2017-Dec-02 16:30N 51°57' E 004°00'0 0.0
2017-Dec-02 16:00N 51°57' E 004°00'0 0.0
2017-Dec-02 15:27N 51°57' E 004°00'0 0.0
2017-Dec-02 14:57N 51°57' E 004°00'0 0.0
2017-Dec-02 14:24N 51°57' E 004°00'0 0.0
2017-Dec-02 14:00N 51°57' E 004°00'0 0.0
2017-Dec-02 13:30N 51°57' E 004°00'0 0.0
2017-Dec-02 13:00N 51°57' E 004°00'0 0.0
2017-Dec-02 12:27N 51°57' E 004°00'0 0.0
2017-Dec-02 11:57N 51°57' E 004°00'0 0.0
2017-Dec-02 11:27N 51°57' E 004°00'0 0.0
2017-Dec-02 11:00N 51°57' E 004°00'0 0.0
2017-Dec-02 10:30N 51°57' E 004°00'0 0.0
2017-Dec-02 10:00N 51°57' E 004°00'0 0.0
2017-Dec-02 09:30N 51°57' E 004°00'0 0.0
2017-Dec-02 08:59N 51°57' E 004°00'0 0.0
2017-Dec-02 08:29N 51°57' E 004°00'0 0.0
2017-Dec-02 07:59N 51°57' E 004°00'0 0.0
2017-Dec-02 07:20N 51°57' E 004°00'0 0.0
2017-Dec-02 06:56N 51°57' E 004°00'0 0.0
2017-Dec-02 06:29N 51°57' E 004°00'0 0.0
2017-Dec-02 05:59N 51°57' E 004°00'0 0.0
2017-Dec-02 05:29N 51°57' E 004°00'0 0.0
2017-Dec-02 04:56N 51°57' E 004°00'0 0.0
2017-Dec-02 04:29N 51°57' E 004°00'0 0.0
2017-Dec-02 03:59N 51°57' E 004°00'0 0.0
2017-Dec-02 03:29N 51°57' E 004°00'0 0.0
2017-Dec-02 03:00N 51°57' E 004°00'2 3.4
2017-Dec-02 02:31N 51°58' E 004°02'1 1.6
2017-Dec-02 02:01N 51°57' E 004°03'0 0.0
2017-Dec-02 01:29N 51°57' E 004°03'0 0.0
2017-Dec-02 00:59N 51°57' E 004°03'0 0.0
2017-Dec-02 00:29N 51°57' E 004°03'0 0.0
2017-Dec-01 23:56N 51°57' E 004°03'0 0.0
2017-Dec-01 23:29N 51°57' E 004°03'0 0.0
2017-Dec-01 22:59N 51°57' E 004°03'0 0.0
2017-Dec-01 22:29N 51°57' E 004°03'0 0.0
2017-Dec-01 21:59N 51°57' E 004°03'0 0.0
2017-Dec-01 21:29N 51°57' E 004°03'0 0.0
2017-Dec-01 20:59N 51°57' E 004°03'0 0.0
2017-Dec-01 20:29N 51°57' E 004°03'0 0.0
2017-Dec-01 19:56N 51°57' E 004°03'0 0.0
2017-Dec-01 19:29N 51°57' E 004°03'0 0.0
2017-Dec-01 18:59N 51°57' E 004°03'0 0.0
2017-Dec-01 18:26N 51°57' E 004°03'0 0.0
2017-Dec-01 17:59N 51°57' E 004°03'0 0.0
2017-Dec-01 17:29N 51°57' E 004°03'0 0.0
2017-Dec-01 16:59N 51°57' E 004°03'0 0.0
2017-Dec-01 16:28N 51°57' E 004°03'0 0.2
2017-Dec-01 16:00N 51°58' E 004°03'2 3.4
2017-Dec-01 15:31N 51°59' E 004°05'612.1
2017-Dec-01 15:01N 51°60' E 003°55'612.1
2017-Dec-01 14:30N 51°59' E 003°45'1816.4
2017-Dec-01 13:23N 51°54' E 003°17'2616.4
2017-Dec-01 11:47N 51°45' E 002°36'516.7
2017-Dec-01 11:30N 51°42' E 002°31'916.7
2017-Dec-01 10:59N 51°35' E 002°22'816.5
2017-Dec-01 10:30N 51°29' E 002°14'815.7
2017-Dec-01 10:00N 51°22' E 002°10'815.8
2017-Dec-01 09:30N 51°14' E 002°05'816.4
2017-Dec-01 09:00N 51°11' E 001°54'816.3
2017-Dec-01 08:31N 51°06' E 001°43'815.8
2017-Dec-01 08:00N 51°01' E 001°34'815.1
2017-Dec-01 07:30N 50°55' E 001°26'5614.0
2017-Dec-01 03:28N 50°22' E 000°14'715.2
2017-Dec-01 03:00N 50°20' E 000°03'815.1
2017-Dec-01 02:31N 50°19' W 000°08'814.9
2017-Dec-01 02:00N 50°18' W 000°20'  
Track history (hours):
 
Tides and Currents Weather Stations Pressure Air Temp Water Temp Dewpoint Dewpoint Depression Visibility Wind Speed Wind Dir Waves Ship Positions

Anne Sibum

Last reported at 2017-Dec-11 02:00 UTC. Time now 2017-Dec-11 02:21 UTC.
Position N 51°57' E 004°04'.

Length 151 m; draft 6.2 m.

Type: Ship (hazmat cat A). MMSI: 209322000.

Date/timePositionNaut miles runAvg speedWind from/ knotsBaromVisibWave heightAir tempDewpointWater temp
2017-Dec-11 02:00N 51°57' E 004°04'0 0.0
2017-Dec-11 01:30N 51°57' E 004°04'0 0.0
2017-Dec-11 00:57N 51°57' E 004°04'0 0.0
2017-Dec-11 00:30N 51°57' E 004°04'0 0.0
2017-Dec-11 00:00N 51°57' E 004°04'0 0.0
2017-Dec-10 23:30N 51°57' E 004°04'0 0.0
2017-Dec-10 23:01N 51°57' E 004°04'0 0.9
2017-Dec-10 22:31N 51°57' E 004°05'1 2.1
2017-Dec-10 22:00N 51°58' E 004°03'0 0.0
2017-Dec-10 21:30N 51°58' E 004°03'0 0.0
2017-Dec-10 21:00N 51°58' E 004°03'0 0.0
2017-Dec-10 20:30N 51°58' E 004°03'0 0.0
2017-Dec-10 20:00N 51°58' E 004°03'0 0.0
2017-Dec-10 19:30N 51°58' E 004°03'0 0.0
2017-Dec-10 19:00N 51°58' E 004°03'0 0.0
2017-Dec-10 18:30N 51°58' E 004°03'0 0.0
2017-Dec-10 17:57N 51°58' E 004°03'0 0.0
2017-Dec-10 17:30N 51°58' E 004°03'0 0.0
2017-Dec-10 17:00N 51°58' E 004°03'0 0.0
2017-Dec-10 16:30N 51°58' E 004°03'0 0.0
2017-Dec-10 15:57N 51°58' E 004°03'0 0.0
2017-Dec-10 15:30N 51°58' E 004°03'0 0.0
2017-Dec-10 15:00N 51°58' E 004°03'0 0.0
2017-Dec-10 14:30N 51°58' E 004°03'0 0.0
2017-Dec-10 14:00N 51°58' E 004°03'0 0.0
2017-Dec-10 13:27N 51°58' E 004°03'0 0.0
2017-Dec-10 13:00N 51°58' E 004°03'0 0.0
2017-Dec-10 12:30N 51°58' E 004°03'0 0.0
2017-Dec-10 12:00N 51°58' E 004°03'0 0.0
2017-Dec-10 11:30N 51°58' E 004°03'0 0.0
2017-Dec-10 11:00N 51°58' E 004°03'0 0.0
2017-Dec-10 10:30N 51°58' E 004°03'0 0.0
2017-Dec-10 10:00N 51°58' E 004°03'0 0.0
2017-Dec-10 09:30N 51°58' E 004°03'0 0.0
2017-Dec-10 09:00N 51°58' E 004°03'0 0.0
2017-Dec-10 08:30N 51°58' E 004°03'0 0.0
2017-Dec-10 08:00N 51°58' E 004°03'0 0.0
2017-Dec-10 07:30N 51°58' E 004°03'0 0.0
2017-Dec-10 07:00N 51°58' E 004°03'0 0.0
2017-Dec-10 06:30N 51°58' E 004°03'0 0.0
2017-Dec-10 05:57N 51°58' E 004°03'0 0.0
2017-Dec-10 05:30N 51°58' E 004°03'0 0.1
2017-Dec-10 05:00N 51°58' E 004°03'1 2.7
2017-Dec-10 04:31N 51°58' E 004°05'5 9.7
2017-Dec-10 04:01N 51°56' E 004°12'612.2
2017-Dec-10 03:30N 51°54' E 004°22'3 5.3
2017-Dec-10 03:01N 51°53' E 004°25'0 0.0
2017-Dec-10 02:29N 51°53' E 004°25'0 0.0
2017-Dec-10 01:59N 51°53' E 004°25'0 0.0
2017-Dec-10 01:29N 51°53' E 004°25'0 0.0
2017-Dec-10 00:56N 51°53' E 004°25'0 0.0
2017-Dec-10 00:29N 51°53' E 004°25'0 0.0
2017-Dec-10 00:00N 51°53' E 004°25'0 0.0
2017-Dec-09 23:14N 51°53' E 004°25'0 0.0
2017-Dec-09 22:59N 51°53' E 004°25'0 0.0
2017-Dec-09 22:29N 51°53' E 004°25'0 0.0
2017-Dec-09 21:59N 51°53' E 004°25'0 0.0
2017-Dec-09 21:29N 51°53' E 004°25'0 0.0
2017-Dec-09 20:59N 51°53' E 004°25'0 0.0
2017-Dec-09 20:29N 51°53' E 004°25'0 0.0
2017-Dec-09 19:59N 51°53' E 004°25'0 0.0
2017-Dec-09 19:29N 51°53' E 004°25'0 0.0
2017-Dec-09 18:59N 51°53' E 004°25'0 0.0
2017-Dec-09 18:29N 51°53' E 004°25'0 0.0
2017-Dec-09 17:59N 51°53' E 004°25'0 0.0
2017-Dec-09 17:29N 51°53' E 004°25'0 0.0
2017-Dec-09 16:59N 51°53' E 004°25'0 0.0
2017-Dec-09 16:27N 51°53' E 004°25'0 0.0
2017-Dec-09 16:00N 51°53' E 004°25'0 0.0
2017-Dec-09 15:30N 51°53' E 004°25'0 0.0
2017-Dec-09 15:00N 51°53' E 004°25'0 0.0
2017-Dec-09 14:30N 51°53' E 004°25'0 0.0
2017-Dec-09 14:00N 51°53' E 004°25'1 1.1
2017-Dec-09 13:30N 51°53' E 004°25'2 4.7
2017-Dec-09 13:00N 51°54' E 004°21'4 8.3
2017-Dec-09 12:30N 51°55' E 004°15'510.4
2017-Dec-09 12:00N 51°58' E 004°08'4 8.7
2017-Dec-09 11:30N 51°60' E 004°01'613.0
2017-Dec-09 11:00N 51°59' E 003°51'713.9
2017-Dec-09 10:30N 51°57' E 003°39'5212.9
2017-Dec-09 06:27N 51°36' E 002°23'614.0
2017-Dec-09 06:00N 51°31' E 002°16'713.8
2017-Dec-09 05:30N 51°26' E 002°10'611.8
2017-Dec-09 05:01N 51°20' E 002°08'612.4
2017-Dec-09 04:30N 51°14' E 002°04'613.1
2017-Dec-09 04:01N 51°10' E 001°56'713.3
2017-Dec-09 03:30N 51°07' E 001°46'713.9
2017-Dec-09 03:00N 51°02' E 001°39'713.8
2017-Dec-09 02:30N 50°57' E 001°31'14412.2
2017-Dec-08 14:43N 50°12' W 002°04'2015.8
2017-Dec-08 13:26N 50°10' W 002°35'716.4
2017-Dec-08 13:00N 50°09' W 002°46'816.5
2017-Dec-08 12:30N 50°07' W 002°59'816.5
2017-Dec-08 12:00N 50°06' W 003°11'816.6
2017-Dec-08 11:30N 50°05' W 003°24'816.8
2017-Dec-08 11:00N 50°04' W 003°37'816.8
2017-Dec-08 10:30N 50°03' W 003°50'816.7
2017-Dec-08 10:00N 50°01' W 004°03'916.7
2017-Dec-08 09:29N 49°60' W 004°17'816.6
2017-Dec-08 08:59N 49°59' W 004°29'816.8
2017-Dec-08 08:31N 49°58' W 004°41'916.7
2017-Dec-08 07:59N 49°57' W 004°55'817.0
2017-Dec-08 07:31N 49°55' W 005°07'917.1
2017-Dec-08 07:00N 49°55' W 005°21'816.1
2017-Dec-08 06:30N 49°55' W 005°33'11414.0
2017-Dec-07 22:19N 51°20' W 007°35'515.6
2017-Dec-07 22:00N 51°23' W 007°40'815.9
2017-Dec-07 21:30N 51°29' W 007°49'816.2
2017-Dec-07 21:00N 51°35' W 007°58'714.9
2017-Dec-07 20:30N 51°40' W 008°07'714.7
2017-Dec-07 20:01N 51°45' W 008°15'510.7
2017-Dec-07 19:30N 51°50' W 008°16'3 6.6
2017-Dec-07 19:00N 51°53' W 008°20'3 6.6
2017-Dec-07 18:29N 51°54' W 008°25'0 0.0
2017-Dec-07 17:59N 51°54' W 008°25'0 0.0
2017-Dec-07 17:29N 51°54' W 008°25'0 0.0
2017-Dec-07 16:59N 51°54' W 008°25'0 0.0
2017-Dec-07 16:30N 51°54' W 008°25'0 0.0
2017-Dec-07 16:00N 51°54' W 008°25'0 0.0
2017-Dec-07 15:30N 51°54' W 008°25'0 0.0
2017-Dec-07 15:00N 51°54' W 008°25'0 0.0
2017-Dec-07 14:30N 51°54' W 008°25'0 0.0
2017-Dec-07 14:00N 51°54' W 008°25'0 0.0
2017-Dec-07 13:30N 51°54' W 008°25'0 0.0
2017-Dec-07 13:00N 51°54' W 008°25'0 0.0
2017-Dec-07 12:30N 51°54' W 008°25'0 0.0
2017-Dec-07 12:00N 51°54' W 008°25'0 0.0
2017-Dec-07 11:30N 51°54' W 008°25'0 0.0
2017-Dec-07 10:58N 51°54' W 008°25'0 0.0
2017-Dec-07 10:28N 51°54' W 008°25'0 0.0
2017-Dec-07 10:00N 51°54' W 008°25'0 0.0
2017-Dec-07 09:30N 51°54' W 008°25'0 0.0
2017-Dec-07 09:00N 51°54' W 008°25'0 0.0
2017-Dec-07 08:27N 51°54' W 008°25'0 0.0
2017-Dec-07 08:00N 51°54' W 008°25'0 0.0
2017-Dec-07 07:30N 51°54' W 008°25'0 0.0
2017-Dec-07 07:00N 51°54' W 008°25'0 0.0
2017-Dec-07 06:30N 51°54' W 008°25'0 0.1
2017-Dec-07 06:00N 51°54' W 008°25'0 0.0
2017-Dec-07 05:29N 51°54' W 008°25'0 0.0
2017-Dec-07 04:59N 51°54' W 008°25'0 0.0
2017-Dec-07 04:28N 51°54' W 008°25'0 0.0
2017-Dec-07 03:58N 51°54' W 008°25'0 0.0
2017-Dec-07 03:28N 51°54' W 008°25'0 0.0
2017-Dec-07 02:58N 51°54' W 008°25'0 0.0
2017-Dec-07 02:28N 51°54' W 008°25'0 0.0
2017-Dec-07 01:55N 51°54' W 008°25'0 0.0
2017-Dec-07 01:28N 51°54' W 008°25'0 0.0
2017-Dec-07 00:55N 51°54' W 008°25'0 0.0
2017-Dec-07 00:28N 51°54' W 008°25'0 0.0
2017-Dec-06 23:58N 51°54' W 008°25'0 0.0
2017-Dec-06 23:28N 51°54' W 008°25'0 0.0
2017-Dec-06 22:58N 51°54' W 008°25'0 0.0
2017-Dec-06 22:28N 51°54' W 008°25'0 0.0
2017-Dec-06 21:58N 51°54' W 008°25'0 0.0
2017-Dec-06 21:28N 51°54' W 008°25'0 0.0
2017-Dec-06 20:58N 51°54' W 008°25'  
2017-Dec-04 10:30N 51°53' E 004°25'0 0.0
2017-Dec-04 10:00N 51°53' E 004°25'0 0.0
2017-Dec-04 09:30N 51°53' E 004°25'0 0.0
2017-Dec-04 09:00N 51°53' E 004°25'0 0.0
2017-Dec-04 08:30N 51°53' E 004°25'0 0.0
2017-Dec-04 08:00N 51°53' E 004°25'0 0.0
2017-Dec-04 07:30N 51°53' E 004°25'0 0.0
2017-Dec-04 07:00N 51°53' E 004°25'0 0.0
2017-Dec-04 06:30N 51°53' E 004°25'0 0.0
2017-Dec-04 06:00N 51°53' E 004°25'0 0.0
2017-Dec-04 05:00N 51°53' E 004°25'0 0.0
2017-Dec-04 04:30N 51°53' E 004°25'0 0.0
2017-Dec-04 04:00N 51°53' E 004°25'0 0.0
2017-Dec-04 03:30N 51°53' E 004°25'0 0.0
2017-Dec-04 03:00N 51°53' E 004°25'0 0.0
2017-Dec-04 02:30N 51°53' E 004°25'0 0.0
2017-Dec-04 01:57N 51°53' E 004°25'0 0.0
2017-Dec-04 01:30N 51°53' E 004°25'0 0.0
2017-Dec-04 01:00N 51°53' E 004°25'0 0.0
2017-Dec-04 00:30N 51°53' E 004°25'0 0.0
2017-Dec-04 00:00N 51°53' E 004°25'0 0.0
2017-Dec-03 23:30N 51°53' E 004°25'0 0.0
2017-Dec-03 23:00N 51°53' E 004°25'0 0.0
2017-Dec-03 22:30N 51°53' E 004°25'0 0.0
2017-Dec-03 22:00N 51°53' E 004°25'0 0.0
2017-Dec-03 21:30N 51°53' E 004°25'0 0.0
2017-Dec-03 21:00N 51°53' E 004°25'0 0.0
2017-Dec-03 20:27N 51°53' E 004°25'0 0.0
2017-Dec-03 20:00N 51°53' E 004°25'0 0.0
2017-Dec-03 19:30N 51°53' E 004°25'0 0.0
2017-Dec-03 19:00N 51°53' E 004°25'0 0.0
2017-Dec-03 18:30N 51°53' E 004°25'0 0.0
2017-Dec-03 18:00N 51°53' E 004°25'0 0.0
2017-Dec-03 17:30N 51°53' E 004°25'0 0.0
2017-Dec-03 17:00N 51°53' E 004°25'0 0.0
2017-Dec-03 16:30N 51°53' E 004°25'0 0.0
2017-Dec-03 16:00N 51°53' E 004°25'0 0.0
2017-Dec-03 15:30N 51°53' E 004°25'0 0.0
2017-Dec-03 15:00N 51°53' E 004°25'0 0.0
2017-Dec-03 14:30N 51°53' E 004°25'0 0.0
2017-Dec-03 14:00N 51°53' E 004°25'0 0.0
2017-Dec-03 13:30N 51°53' E 004°25'0 0.0
2017-Dec-03 13:00N 51°53' E 004°25'0 0.0
2017-Dec-03 12:30N 51°53' E 004°25'0 0.0
2017-Dec-03 12:00N 51°53' E 004°25'0 0.0
2017-Dec-03 11:30N 51°53' E 004°25'0 0.0
2017-Dec-03 10:59N 51°53' E 004°25'0 0.0
2017-Dec-03 10:29N 51°53' E 004°25'0 0.0
2017-Dec-03 09:59N 51°53' E 004°25'0 0.0
2017-Dec-03 09:29N 51°53' E 004°25'0 0.0
2017-Dec-03 08:59N 51°53' E 004°25'0 0.2
2017-Dec-03 08:30N 51°53' E 004°25'3 5.5
2017-Dec-03 08:00N 51°54' E 004°20'5 9.4
2017-Dec-03 07:30N 51°56' E 004°13'510.4
2017-Dec-03 07:00N 51°59' E 004°07'2 4.4
2017-Dec-03 06:30N 51°57' E 004°04'1 1.4
2017-Dec-03 05:55N 51°57' E 004°03'0 0.0
2017-Dec-03 05:25N 51°57' E 004°03'0 0.0
2017-Dec-03 04:58N 51°57' E 004°03'0 0.0
2017-Dec-03 04:28N 51°57' E 004°03'0 0.0
2017-Dec-03 03:55N 51°57' E 004°03'0 0.0
2017-Dec-03 03:28N 51°57' E 004°03'0 0.0
2017-Dec-03 02:58N 51°57' E 004°03'0 0.0
2017-Dec-03 02:28N 51°57' E 004°03'0 0.0
2017-Dec-03 01:58N 51°57' E 004°03'0 0.0
2017-Dec-03 01:28N 51°57' E 004°03'0 0.0
2017-Dec-03 00:55N 51°57' E 004°03'0 0.0
2017-Dec-03 00:28N 51°57' E 004°03'0 0.0
2017-Dec-02 23:58N 51°57' E 004°03'0 0.0
2017-Dec-02 23:28N 51°57' E 004°03'0 0.0
2017-Dec-02 22:58N 51°57' E 004°03'0 0.0
2017-Dec-02 22:28N 51°57' E 004°03'0 0.0
2017-Dec-02 21:58N 51°57' E 004°03'0 0.0
2017-Dec-02 21:25N 51°57' E 004°03'0 0.0
2017-Dec-02 20:58N 51°57' E 004°03'0 0.0
2017-Dec-02 20:30N 51°57' E 004°03'0 0.1
2017-Dec-02 20:01N 51°57' E 004°03'0 0.3
2017-Dec-02 19:31N 51°57' E 004°03'1 1.0
2017-Dec-02 19:00N 51°57' E 004°04'2 4.0
2017-Dec-02 18:30N 51°58' E 004°02'2 3.0
2017-Dec-02 18:00N 51°57' E 004°00'0 0.0
2017-Dec-02 17:21N 51°57' E 004°00'0 0.0
2017-Dec-02 17:00N 51°57' E 004°00'0 0.0
2017-Dec-02 16:30N 51°57' E 004°00'0 0.0
2017-Dec-02 16:00N 51°57' E 004°00'0 0.0
2017-Dec-02 15:27N 51°57' E 004°00'0 0.0
2017-Dec-02 14:57N 51°57' E 004°00'0 0.0
2017-Dec-02 14:24N 51°57' E 004°00'0 0.0
2017-Dec-02 14:00N 51°57' E 004°00'0 0.0
2017-Dec-02 13:30N 51°57' E 004°00'0 0.0
2017-Dec-02 13:00N 51°57' E 004°00'0 0.0
2017-Dec-02 12:27N 51°57' E 004°00'0 0.0
2017-Dec-02 11:57N 51°57' E 004°00'0 0.0
2017-Dec-02 11:27N 51°57' E 004°00'0 0.0
2017-Dec-02 11:00N 51°57' E 004°00'0 0.0
2017-Dec-02 10:30N 51°57' E 004°00'0 0.0
2017-Dec-02 10:00N 51°57' E 004°00'0 0.0
2017-Dec-02 09:30N 51°57' E 004°00'0 0.0
2017-Dec-02 08:59N 51°57' E 004°00'0 0.0
2017-Dec-02 08:29N 51°57' E 004°00'0 0.0
2017-Dec-02 07:59N 51°57' E 004°00'0 0.0
2017-Dec-02 07:20N 51°57' E 004°00'0 0.0
2017-Dec-02 06:56N 51°57' E 004°00'0 0.0
2017-Dec-02 06:29N 51°57' E 004°00'0 0.0
2017-Dec-02 05:59N 51°57' E 004°00'0 0.0
2017-Dec-02 05:29N 51°57' E 004°00'0 0.0
2017-Dec-02 04:56N 51°57' E 004°00'0 0.0
2017-Dec-02 04:29N 51°57' E 004°00'0 0.0
2017-Dec-02 03:59N 51°57' E 004°00'0 0.0
2017-Dec-02 03:29N 51°57' E 004°00'0 0.0
2017-Dec-02 03:00N 51°57' E 004°00'2 3.4
2017-Dec-02 02:31N 51°58' E 004°02'1 1.6
2017-Dec-02 02:01N 51°57' E 004°03'0 0.0
2017-Dec-02 01:29N 51°57' E 004°03'0 0.0
2017-Dec-02 00:59N 51°57' E 004°03'0 0.0
2017-Dec-02 00:29N 51°57' E 004°03'0 0.0
2017-Dec-01 23:56N 51°57' E 004°03'0 0.0
2017-Dec-01 23:29N 51°57' E 004°03'0 0.0
2017-Dec-01 22:59N 51°57' E 004°03'0 0.0
2017-Dec-01 22:29N 51°57' E 004°03'0 0.0
2017-Dec-01 21:59N 51°57' E 004°03'0 0.0
2017-Dec-01 21:29N 51°57' E 004°03'0 0.0
2017-Dec-01 20:59N 51°57' E 004°03'0 0.0
2017-Dec-01 20:29N 51°57' E 004°03'0 0.0
2017-Dec-01 19:56N 51°57' E 004°03'0 0.0
2017-Dec-01 19:29N 51°57' E 004°03'0 0.0
2017-Dec-01 18:59N 51°57' E 004°03'0 0.0
2017-Dec-01 18:26N 51°57' E 004°03'0 0.0
2017-Dec-01 17:59N 51°57' E 004°03'0 0.0
2017-Dec-01 17:29N 51°57' E 004°03'0 0.0
2017-Dec-01 16:59N 51°57' E 004°03'0 0.0
2017-Dec-01 16:28N 51°57' E 004°03'0 0.2
2017-Dec-01 16:00N 51°58' E 004°03'2 3.4
2017-Dec-01 15:31N 51°59' E 004°05'612.1
2017-Dec-01 15:01N 51°60' E 003°55'612.1
2017-Dec-01 14:30N 51°59' E 003°45'1816.4
2017-Dec-01 13:23N 51°54' E 003°17'2616.4
2017-Dec-01 11:47N 51°45' E 002°36'516.7
2017-Dec-01 11:30N 51°42' E 002°31'916.7
2017-Dec-01 10:59N 51°35' E 002°22'816.5
2017-Dec-01 10:30N 51°29' E 002°14'815.7
2017-Dec-01 10:00N 51°22' E 002°10'815.8
2017-Dec-01 09:30N 51°14' E 002°05'816.4
2017-Dec-01 09:00N 51°11' E 001°54'816.3
2017-Dec-01 08:31N 51°06' E 001°43'815.8
2017-Dec-01 08:00N 51°01' E 001°34'815.1
2017-Dec-01 07:30N 50°55' E 001°26'5614.0
2017-Dec-01 03:28N 50°22' E 000°14'715.2
2017-Dec-01 03:00N 50°20' E 000°03'815.1
2017-Dec-01 02:31N 50°19' W 000°08'814.9
2017-Dec-01 02:00N 50°18' W 000°20'  

Dump ship's entire track history